sensor_id;sensor_type;location;lat;lon;timestamp;pressure;altitude;pressure_sealevel;temperature;humidity
6395;BME280;3230;42.588;23.358;2023-04-09T00:00:25;91155.66;;;3.70;100.00
6395;BME280;3230;42.588;23.358;2023-04-09T00:02:50;91157.91;;;3.66;100.00
6395;BME280;3230;42.588;23.358;2023-04-09T00:05:16;91150.97;;;3.55;100.00
6395;BME280;3230;42.588;23.358;2023-04-09T00:07:41;91155.13;;;3.56;100.00
6395;BME280;3230;42.588;23.358;2023-04-09T00:10:07;91160.31;;;3.56;100.00
6395;BME280;3230;42.588;23.358;2023-04-09T00:12:32;91162.91;;;3.56;100.00
6395;BME280;3230;42.588;23.358;2023-04-09T00:14:58;91166.03;;;3.58;100.00
6395;BME280;3230;42.588;23.358;2023-04-09T00:17:24;91168.28;;;3.54;100.00
6395;BME280;3230;42.588;23.358;2023-04-09T00:19:49;91167.19;;;3.50;100.00
6395;BME280;3230;42.588;23.358;2023-04-09T00:22:15;91161.09;;;3.56;100.00
6395;BME280;3230;42.588;23.358;2023-04-09T00:24:40;91168.97;;;3.61;100.00
6395;BME280;3230;42.588;23.358;2023-04-09T00:27:06;91168.97;;;3.49;100.00
6395;BME280;3230;42.588;23.358;2023-04-09T00:29:31;91172.03;;;3.46;100.00
6395;BME280;3230;42.588;23.358;2023-04-09T00:31:57;91169.09;;;3.43;100.00
6395;BME280;3230;42.588;23.358;2023-04-09T00:34:22;91164.50;;;3.45;100.00
6395;BME280;3230;42.588;23.358;2023-04-09T00:36:47;91163.25;;;3.35;100.00
6395;BME280;3230;42.588;23.358;2023-04-09T00:39:13;91161.09;;;3.44;100.00
6395;BME280;3230;42.588;23.358;2023-04-09T00:41:38;91157.16;;;3.54;100.00
6395;BME280;3230;42.588;23.358;2023-04-09T00:44:04;91158.72;;;3.55;100.00
6395;BME280;3230;42.588;23.358;2023-04-09T00:46:30;91155.13;;;3.32;100.00
6395;BME280;3230;42.588;23.358;2023-04-09T00:48:56;91156.63;;;3.28;100.00
6395;BME280;3230;42.588;23.358;2023-04-09T00:51:22;91157.84;;;3.25;100.00
6395;BME280;3230;42.588;23.358;2023-04-09T00:53:47;91157.53;;;3.22;100.00
6395;BME280;3230;42.588;23.358;2023-04-09T00:56:14;91162.91;;;3.32;100.00
6395;BME280;3230;42.588;23.358;2023-04-09T00:58:41;91158.06;;;3.24;100.00
6395;BME280;3230;42.588;23.358;2023-04-09T01:01:07;91161.91;;;3.21;100.00
6395;BME280;3230;42.588;23.358;2023-04-09T01:03:32;91159.22;;;3.28;100.00
6395;BME280;3230;42.588;23.358;2023-04-09T01:17:34;91164.94;;;3.06;100.00
6395;BME280;3230;42.588;23.358;2023-04-09T01:20:17;91164.38;;;3.04;100.00
6395;BME280;3230;42.588;23.358;2023-04-09T01:25:37;91162.44;;;2.99;100.00
6395;BME280;3230;42.588;23.358;2023-04-09T01:30:35;91170.16;;;2.64;100.00
6395;BME280;3230;42.588;23.358;2023-04-09T01:33:02;91170.06;;;2.70;100.00
6395;BME280;3230;42.588;23.358;2023-04-09T01:35:29;91171.59;;;2.48;100.00
6395;BME280;3230;42.588;23.358;2023-04-09T01:37:55;91170.34;;;2.50;100.00
6395;BME280;3230;42.588;23.358;2023-04-09T01:40:21;91170.66;;;2.42;100.00
6395;BME280;3230;42.588;23.358;2023-04-09T01:42:47;91163.66;;;2.31;100.00
6395;BME280;3230;42.588;23.358;2023-04-09T01:45:14;91173.78;;;2.32;100.00
6395;BME280;3230;42.588;23.358;2023-04-09T01:47:40;91165.13;;;2.27;100.00
6395;BME280;3230;42.588;23.358;2023-04-09T01:50:06;91166.47;;;2.29;100.00
6395;BME280;3230;42.588;23.358;2023-04-09T01:52:32;91179.06;;;2.26;100.00
6395;BME280;3230;42.588;23.358;2023-04-09T01:54:58;91176.25;;;2.27;100.00
6395;BME280;3230;42.588;23.358;2023-04-09T01:57:23;91179.13;;;2.19;100.00
6395;BME280;3230;42.588;23.358;2023-04-09T01:59:48;91170.13;;;2.21;100.00
6395;BME280;3230;42.588;23.358;2023-04-09T02:02:21;91175.75;;;2.18;100.00
6395;BME280;3230;42.588;23.358;2023-04-09T02:04:50;91178.59;;;2.29;100.00
6395;BME280;3230;42.588;23.358;2023-04-09T02:07:36;91178.03;;;2.27;100.00
6395;BME280;3230;42.588;23.358;2023-04-09T02:10:04;91174.88;;;2.24;100.00
6395;BME280;3230;42.588;23.358;2023-04-09T02:12:32;91172.38;;;2.18;100.00
6395;BME280;3230;42.588;23.358;2023-04-09T02:15:01;91178.25;;;2.25;100.00
6395;BME280;3230;42.588;23.358;2023-04-09T02:17:27;91169.66;;;2.13;100.00
6395;BME280;3230;42.588;23.358;2023-04-09T02:19:52;91168.06;;;2.12;100.00
6395;BME280;3230;42.588;23.358;2023-04-09T02:22:18;91172.81;;;2.15;100.00
6395;BME280;3230;42.588;23.358;2023-04-09T02:24:45;91165.72;;;2.10;100.00
6395;BME280;3230;42.588;23.358;2023-04-09T02:27:10;91171.50;;;2.24;100.00
6395;BME280;3230;42.588;23.358;2023-04-09T02:29:38;91171.13;;;2.20;100.00
6395;BME280;3230;42.588;23.358;2023-04-09T02:32:03;91167.19;;;2.18;100.00
6395;BME280;3230;42.588;23.358;2023-04-09T02:34:29;91164.25;;;2.14;100.00
6395;BME280;3230;42.588;23.358;2023-04-09T02:36:55;91166.28;;;2.12;100.00
6395;BME280;3230;42.588;23.358;2023-04-09T02:39:20;91166.28;;;2.12;100.00
6395;BME280;3230;42.588;23.358;2023-04-09T02:41:45;91169.00;;;2.17;100.00
6395;BME280;3230;42.588;23.358;2023-04-09T02:44:11;91169.44;;;2.14;100.00
6395;BME280;3230;42.588;23.358;2023-04-09T02:46:38;91162.13;;;2.11;100.00
6395;BME280;3230;42.588;23.358;2023-04-09T02:49:03;91162.97;;;2.23;100.00
6395;BME280;3230;42.588;23.358;2023-04-09T02:51:28;91158.31;;;2.14;100.00
6395;BME280;3230;42.588;23.358;2023-04-09T02:53:54;91156.19;;;2.22;100.00
6395;BME280;3230;42.588;23.358;2023-04-09T02:56:19;91156.31;;;2.28;100.00
6395;BME280;3230;42.588;23.358;2023-04-09T02:58:45;91158.44;;;2.19;100.00
6395;BME280;3230;42.588;23.358;2023-04-09T03:01:13;91159.38;;;2.24;100.00
6395;BME280;3230;42.588;23.358;2023-04-09T03:03:38;91166.31;;;2.24;100.00
6395;BME280;3230;42.588;23.358;2023-04-09T03:06:06;91157.72;;;2.30;100.00
6395;BME280;3230;42.588;23.358;2023-04-09T03:08:31;91174.81;;;2.43;100.00
6395;BME280;3230;42.588;23.358;2023-04-09T03:10:57;91164.44;;;2.31;100.00
6395;BME280;3230;42.588;23.358;2023-04-09T03:13:22;91166.94;;;2.38;100.00
6395;BME280;3230;42.588;23.358;2023-04-09T03:15:51;91163.19;;;2.34;100.00
6395;BME280;3230;42.588;23.358;2023-04-09T03:18:19;91165.94;;;2.39;100.00
6395;BME280;3230;42.588;23.358;2023-04-09T03:20:45;91171.88;;;2.39;100.00
6395;BME280;3230;42.588;23.358;2023-04-09T03:23:10;91162.56;;;2.38;100.00
6395;BME280;3230;42.588;23.358;2023-04-09T03:25:36;91169.53;;;2.38;100.00
6395;BME280;3230;42.588;23.358;2023-04-09T03:28:02;91155.13;;;2.42;100.00
6395;BME280;3230;42.588;23.358;2023-04-09T03:30:28;91165.63;;;2.47;100.00
6395;BME280;3230;42.588;23.358;2023-04-09T03:32:53;91156.41;;;2.51;100.00
6395;BME280;3230;42.588;23.358;2023-04-09T03:35:19;91163.59;;;2.49;100.00
6395;BME280;3230;42.588;23.358;2023-04-09T03:37:45;91162.34;;;2.52;100.00
6395;BME280;3230;42.588;23.358;2023-04-09T03:40:11;91161.03;;;2.61;100.00
6395;BME280;3230;42.588;23.358;2023-04-09T03:42:36;91169.59;;;2.62;100.00
6395;BME280;3230;42.588;23.358;2023-04-09T03:45:03;91168.50;;;2.69;100.00
6395;BME280;3230;42.588;23.358;2023-04-09T03:47:28;91176.47;;;2.68;100.00
6395;BME280;3230;42.588;23.358;2023-04-09T03:49:54;91179.94;;;2.62;100.00
6395;BME280;3230;42.588;23.358;2023-04-09T03:52:19;91175.44;;;2.57;100.00
6395;BME280;3230;42.588;23.358;2023-04-09T03:54:45;91176.59;;;2.73;100.00
6395;BME280;3230;42.588;23.358;2023-04-09T03:57:10;91174.31;;;2.65;100.00
6395;BME280;3230;42.588;23.358;2023-04-09T03:59:35;91187.50;;;2.75;100.00
6395;BME280;3230;42.588;23.358;2023-04-09T04:02:01;91179.53;;;2.88;100.00
6395;BME280;3230;42.588;23.358;2023-04-09T04:04:26;91182.59;;;2.85;100.00
6395;BME280;3230;42.588;23.358;2023-04-09T04:06:52;91182.34;;;2.87;100.00
6395;BME280;3230;42.588;23.358;2023-04-09T04:09:17;91187.28;;;2.88;100.00
6395;BME280;3230;42.588;23.358;2023-04-09T04:11:42;91182.94;;;2.89;100.00
6395;BME280;3230;42.588;23.358;2023-04-09T04:14:08;91179.22;;;2.97;100.00
6395;BME280;3230;42.588;23.358;2023-04-09T04:16:33;91186.75;;;2.98;100.00
6395;BME280;3230;42.588;23.358;2023-04-09T04:18:59;91182.38;;;2.99;100.00
6395;BME280;3230;42.588;23.358;2023-04-09T04:21:24;91183.84;;;3.18;100.00
6395;BME280;3230;42.588;23.358;2023-04-09T04:23:49;91185.88;;;3.28;100.00
6395;BME280;3230;42.588;23.358;2023-04-09T04:26:15;91182.84;;;3.31;100.00
6395;BME280;3230;42.588;23.358;2023-04-09T04:28:40;91181.47;;;3.29;100.00
6395;BME280;3230;42.588;23.358;2023-04-09T04:31:09;91186.00;;;3.33;100.00
6395;BME280;3230;42.588;23.358;2023-04-09T04:33:36;91189.94;;;3.48;100.00
6395;BME280;3230;42.588;23.358;2023-04-09T04:36:10;91184.28;;;3.63;100.00
6395;BME280;3230;42.588;23.358;2023-04-09T04:38:36;91192.28;;;3.73;100.00
6395;BME280;3230;42.588;23.358;2023-04-09T04:41:03;91189.34;;;3.70;100.00
6395;BME280;3230;42.588;23.358;2023-04-09T04:43:28;91191.28;;;3.74;100.00
6395;BME280;3230;42.588;23.358;2023-04-09T04:45:54;91183.34;;;3.81;100.00
6395;BME280;3230;42.588;23.358;2023-04-09T04:48:20;91195.72;;;3.91;100.00
6395;BME280;3230;42.588;23.358;2023-04-09T04:50:45;91193.69;;;4.05;100.00
6395;BME280;3230;42.588;23.358;2023-04-09T04:53:11;91203.78;;;4.30;100.00
6395;BME280;3230;42.588;23.358;2023-04-09T04:55:37;91200.00;;;4.38;100.00
6395;BME280;3230;42.588;23.358;2023-04-09T04:58:04;91201.31;;;4.52;100.00
6395;BME280;3230;42.588;23.358;2023-04-09T05:00:30;91201.28;;;4.64;100.00
6395;BME280;3230;42.588;23.358;2023-04-09T05:02:55;91198.75;;;4.69;100.00
6395;BME280;3230;42.588;23.358;2023-04-09T05:05:21;91206.63;;;4.74;100.00
6395;BME280;3230;42.588;23.358;2023-04-09T05:07:46;91203.75;;;4.88;100.00
6395;BME280;3230;42.588;23.358;2023-04-09T05:10:12;91204.31;;;4.90;100.00
6395;BME280;3230;42.588;23.358;2023-04-09T05:12:37;91206.56;;;4.86;100.00
6395;BME280;3230;42.588;23.358;2023-04-09T05:15:03;91213.03;;;4.84;100.00
6395;BME280;3230;42.588;23.358;2023-04-09T05:17:28;91200.19;;;4.94;100.00
6395;BME280;3230;42.588;23.358;2023-04-09T05:19:54;91202.88;;;4.99;100.00
6395;BME280;3230;42.588;23.358;2023-04-09T05:22:22;91203.91;;;4.98;100.00
6395;BME280;3230;42.588;23.358;2023-04-09T05:24:47;91203.50;;;5.40;100.00
6395;BME280;3230;42.588;23.358;2023-04-09T05:27:13;91212.38;;;5.79;100.00
6395;BME280;3230;42.588;23.358;2023-04-09T05:29:38;91206.69;;;5.99;100.00
6395;BME280;3230;42.588;23.358;2023-04-09T05:32:03;91204.16;;;6.26;100.00
6395;BME280;3230;42.588;23.358;2023-04-09T05:34:29;91217.63;;;6.67;100.00
6395;BME280;3230;42.588;23.358;2023-04-09T05:36:55;91214.19;;;6.62;100.00
6395;BME280;3230;42.588;23.358;2023-04-09T05:39:20;91221.34;;;6.77;100.00
6395;BME280;3230;42.588;23.358;2023-04-09T05:41:45;91224.31;;;5.97;100.00
6395;BME280;3230;42.588;23.358;2023-04-09T05:44:11;91216.50;;;5.97;100.00
6395;BME280;3230;42.588;23.358;2023-04-09T05:46:37;91222.00;;;5.61;100.00
6395;BME280;3230;42.588;23.358;2023-04-09T05:49:02;91215.94;;;5.72;100.00
6395;BME280;3230;42.588;23.358;2023-04-09T05:51:28;91225.81;;;5.53;100.00
6395;BME280;3230;42.588;23.358;2023-04-09T05:53:53;91213.28;;;5.50;100.00
6395;BME280;3230;42.588;23.358;2023-04-09T05:56:19;91221.78;;;5.45;100.00
6395;BME280;3230;42.588;23.358;2023-04-09T05:58:47;91214.84;;;5.00;100.00
6395;BME280;3230;42.588;23.358;2023-04-09T06:01:12;91216.03;;;5.09;100.00
6395;BME280;3230;42.588;23.358;2023-04-09T06:03:38;91206.50;;;5.32;100.00
6395;BME280;3230;42.588;23.358;2023-04-09T06:06:04;91214.28;;;5.49;100.00
6395;BME280;3230;42.588;23.358;2023-04-09T06:08:29;91209.53;;;5.80;100.00
6395;BME280;3230;42.588;23.358;2023-04-09T06:10:55;91218.06;;;5.75;100.00
6395;BME280;3230;42.588;23.358;2023-04-09T06:13:20;91223.56;;;6.18;100.00
6395;BME280;3230;42.588;23.358;2023-04-09T06:15:46;91235.69;;;6.30;100.00
6395;BME280;3230;42.588;23.358;2023-04-09T06:18:12;91230.66;;;6.23;100.00
6395;BME280;3230;42.588;23.358;2023-04-09T06:20:37;91228.72;;;6.35;100.00
6395;BME280;3230;42.588;23.358;2023-04-09T06:23:03;91233.56;;;6.49;100.00
6395;BME280;3230;42.588;23.358;2023-04-09T06:25:28;91238.28;;;6.52;100.00
6395;BME280;3230;42.588;23.358;2023-04-09T06:27:54;91241.00;;;6.40;100.00
6395;BME280;3230;42.588;23.358;2023-04-09T06:30:19;91234.78;;;6.19;100.00
6395;BME280;3230;42.588;23.358;2023-04-09T06:32:45;91236.09;;;6.44;100.00
6395;BME280;3230;42.588;23.358;2023-04-09T06:35:12;91241.00;;;6.62;100.00
6395;BME280;3230;42.588;23.358;2023-04-09T06:37:38;91243.00;;;7.69;100.00
6395;BME280;3230;42.588;23.358;2023-04-09T06:40:03;91247.16;;;8.08;97.26
6395;BME280;3230;42.588;23.358;2023-04-09T06:42:29;91254.81;;;8.25;95.33
6395;BME280;3230;42.588;23.358;2023-04-09T06:44:54;91252.75;;;8.32;93.82
6395;BME280;3230;42.588;23.358;2023-04-09T06:47:20;91264.63;;;8.03;92.50
6395;BME280;3230;42.588;23.358;2023-04-09T06:49:45;91249.56;;;7.72;94.05
6395;BME280;3230;42.588;23.358;2023-04-09T06:52:11;91260.34;;;7.53;96.21
6395;BME280;3230;42.588;23.358;2023-04-09T06:54:36;91261.50;;;7.68;96.87
6395;BME280;3230;42.588;23.358;2023-04-09T06:57:02;91255.97;;;7.59;96.38
6395;BME280;3230;42.588;23.358;2023-04-09T06:59:27;91252.38;;;7.65;97.29
6395;BME280;3230;42.588;23.358;2023-04-09T07:01:52;91261.66;;;7.56;95.80
6395;BME280;3230;42.588;23.358;2023-04-09T07:04:18;91260.75;;;7.08;97.55
6395;BME280;3230;42.588;23.358;2023-04-09T07:06:43;91256.00;;;7.32;98.35
6395;BME280;3230;42.588;23.358;2023-04-09T07:09:08;91257.56;;;7.00;96.98
6395;BME280;3230;42.588;23.358;2023-04-09T07:11:34;91253.75;;;6.86;99.03
6395;BME280;3230;42.588;23.358;2023-04-09T07:13:59;91257.47;;;7.17;98.65
6395;BME280;3230;42.588;23.358;2023-04-09T07:16:25;91264.63;;;7.05;98.38
6395;BME280;3230;42.588;23.358;2023-04-09T07:18:50;91266.44;;;7.04;96.42
6395;BME280;3230;42.588;23.358;2023-04-09T07:21:16;91260.41;;;7.26;95.10
6395;BME280;3230;42.588;23.358;2023-04-09T07:23:41;91269.84;;;7.32;95.42
6395;BME280;3230;42.588;23.358;2023-04-09T07:26:06;91262.31;;;7.36;95.13
6395;BME280;3230;42.588;23.358;2023-04-09T07:28:32;91263.03;;;7.31;94.60
6395;BME280;3230;42.588;23.358;2023-04-09T07:30:59;91264.91;;;7.68;94.07
6395;BME280;3230;42.588;23.358;2023-04-09T07:33:27;91269.34;;;7.73;93.76
6395;BME280;3230;42.588;23.358;2023-04-09T07:35:52;91265.88;;;7.62;92.96
6395;BME280;3230;42.588;23.358;2023-04-09T07:38:17;91274.50;;;7.30;92.65
6395;BME280;3230;42.588;23.358;2023-04-09T07:40:43;91275.34;;;7.09;93.42
6395;BME280;3230;42.588;23.358;2023-04-09T07:43:08;91269.53;;;7.01;93.87
6395;BME280;3230;42.588;23.358;2023-04-09T07:45:33;91267.47;;;6.76;98.23
6395;BME280;3230;42.588;23.358;2023-04-09T07:47:59;91276.94;;;6.87;100.00
6395;BME280;3230;42.588;23.358;2023-04-09T07:50:24;91269.94;;;6.44;100.00
6395;BME280;3230;42.588;23.358;2023-04-09T07:52:50;91271.78;;;6.65;100.00
6395;BME280;3230;42.588;23.358;2023-04-09T07:55:16;91272.00;;;6.86;100.00
6395;BME280;3230;42.588;23.358;2023-04-09T07:57:41;91270.28;;;6.97;100.00
6395;BME280;3230;42.588;23.358;2023-04-09T08:00:08;91277.25;;;6.91;100.00
6395;BME280;3230;42.588;23.358;2023-04-09T08:02:33;91284.13;;;7.02;100.00
6395;BME280;3230;42.588;23.358;2023-04-09T08:04:59;91284.28;;;7.18;100.00
6395;BME280;3230;42.588;23.358;2023-04-09T08:07:24;91290.44;;;7.07;100.00
6395;BME280;3230;42.588;23.358;2023-04-09T08:09:50;91290.44;;;7.07;100.00
6395;BME280;3230;42.588;23.358;2023-04-09T08:12:15;91283.75;;;7.16;100.00
6395;BME280;3230;42.588;23.358;2023-04-09T08:14:41;91286.69;;;6.97;100.00
6395;BME280;3230;42.588;23.358;2023-04-09T08:17:06;91283.84;;;7.26;100.00
6395;BME280;3230;42.588;23.358;2023-04-09T08:19:31;91281.28;;;7.31;100.00
6395;BME280;3230;42.588;23.358;2023-04-09T08:21:57;91280.63;;;7.14;98.72
6395;BME280;3230;42.588;23.358;2023-04-09T08:24:23;91279.03;;;7.13;98.77
6395;BME280;3230;42.588;23.358;2023-04-09T08:26:48;91289.47;;;7.13;98.90
6395;BME280;3230;42.588;23.358;2023-04-09T08:29:14;91295.44;;;7.13;97.27
6395;BME280;3230;42.588;23.358;2023-04-09T08:31:39;91287.38;;;7.42;96.71
6395;BME280;3230;42.588;23.358;2023-04-09T08:34:05;91292.31;;;7.11;95.89
6395;BME280;3230;42.588;23.358;2023-04-09T08:36:31;91292.38;;;7.16;94.75
6395;BME280;3230;42.588;23.358;2023-04-09T08:38:57;91299.06;;;7.34;96.33
6395;BME280;3230;42.588;23.358;2023-04-09T08:41:28;91288.06;;;7.32;94.97
6395;BME280;3230;42.588;23.358;2023-04-09T08:43:54;91297.25;;;7.40;94.74
6395;BME280;3230;42.588;23.358;2023-04-09T08:46:21;91292.88;;;7.46;95.52
6395;BME280;3230;42.588;23.358;2023-04-09T08:48:48;91285.72;;;7.63;95.37
6395;BME280;3230;42.588;23.358;2023-04-09T08:51:19;91292.53;;;7.69;95.27
6395;BME280;3230;42.588;23.358;2023-04-09T08:53:46;91298.19;;;7.56;94.01
6395;BME280;3230;42.588;23.358;2023-04-09T08:56:14;91294.91;;;7.39;94.73
6395;BME280;3230;42.588;23.358;2023-04-09T08:58:45;91291.41;;;7.55;95.48
6395;BME280;3230;42.588;23.358;2023-04-09T09:03:56;91286.31;;;7.71;95.27
6395;BME280;3230;42.588;23.358;2023-04-09T09:06:23;91284.28;;;7.78;94.96
6395;BME280;3230;42.588;23.358;2023-04-09T09:09:19;91283.94;;;8.02;92.65
6395;BME280;3230;42.588;23.358;2023-04-09T09:11:47;91288.31;;;7.63;94.07
6395;BME280;3230;42.588;23.358;2023-04-09T09:14:18;91282.59;;;7.61;94.83
6395;BME280;3230;42.588;23.358;2023-04-09T09:17:02;91286.63;;;7.79;94.18
6395;BME280;3230;42.588;23.358;2023-04-09T09:19:29;91277.91;;;8.01;93.70
6395;BME280;3230;42.588;23.358;2023-04-09T09:22:02;91277.72;;;8.13;94.21
6395;BME280;3230;42.588;23.358;2023-04-09T09:24:30;91273.66;;;8.32;93.20
6395;BME280;3230;42.588;23.358;2023-04-09T09:26:59;91269.56;;;8.47;93.17
6395;BME280;3230;42.588;23.358;2023-04-09T09:29:26;91272.63;;;8.39;91.57
6395;BME280;3230;42.588;23.358;2023-04-09T09:31:53;91279.34;;;8.72;91.49
6395;BME280;3230;42.588;23.358;2023-04-09T09:34:21;91265.59;;;9.08;91.21
6395;BME280;3230;42.588;23.358;2023-04-09T09:36:47;91279.78;;;9.43;89.30
6395;BME280;3230;42.588;23.358;2023-04-09T09:39:13;91263.84;;;9.70;88.34
6395;BME280;3230;42.588;23.358;2023-04-09T09:41:42;91271.44;;;9.82;86.23
6395;BME280;3230;42.588;23.358;2023-04-09T09:44:09;91264.63;;;10.12;85.56
6395;BME280;3230;42.588;23.358;2023-04-09T09:46:39;91274.81;;;10.03;84.65
6395;BME280;3230;42.588;23.358;2023-04-09T09:49:07;91273.00;;;9.93;85.16
6395;BME280;3230;42.588;23.358;2023-04-09T09:51:36;91271.16;;;10.10;84.36
6395;BME280;3230;42.588;23.358;2023-04-09T09:54:06;91267.47;;;10.11;83.31
6395;BME280;3230;42.588;23.358;2023-04-09T09:56:37;91269.84;;;10.02;84.74
6395;BME280;3230;42.588;23.358;2023-04-09T09:59:06;91267.75;;;10.04;84.50
6395;BME280;3230;42.588;23.358;2023-04-09T10:01:35;91275.06;;;10.17;82.78
6395;BME280;3230;42.588;23.358;2023-04-09T10:04:03;91270.38;;;10.09;83.71
6395;BME280;3230;42.588;23.358;2023-04-09T10:06:32;91266.72;;;9.84;83.76
6395;BME280;3230;42.588;23.358;2023-04-09T10:09:02;91269.56;;;10.29;82.18
6395;BME280;3230;42.588;23.358;2023-04-09T10:11:31;91261.97;;;10.22;82.50
6395;BME280;3230;42.588;23.358;2023-04-09T10:13:57;91260.94;;;10.03;82.85
6395;BME280;3230;42.588;23.358;2023-04-09T10:16:24;91259.91;;;10.09;83.46
6395;BME280;3230;42.588;23.358;2023-04-09T10:18:52;91263.84;;;10.01;80.85
6395;BME280;3230;42.588;23.358;2023-04-09T10:24:20;91257.00;;;10.21;79.31
6395;BME280;3230;42.588;23.358;2023-04-09T10:26:47;91257.03;;;9.90;79.56
6395;BME280;3230;42.588;23.358;2023-04-09T10:29:14;91266.97;;;10.03;79.70
6395;BME280;3230;42.588;23.358;2023-04-09T10:31:47;91267.75;;;10.19;78.23
6395;BME280;3230;42.588;23.358;2023-04-09T10:34:16;91262.75;;;10.28;80.20
6395;BME280;3230;42.588;23.358;2023-04-09T10:36:44;91256.53;;;10.90;79.79
6395;BME280;3230;42.588;23.358;2023-04-09T10:39:12;91258.06;;;11.01;78.28
6395;BME280;3230;42.588;23.358;2023-04-09T10:41:38;91254.94;;;10.99;77.93
6395;BME280;3230;42.588;23.358;2023-04-09T10:44:23;91259.06;;;11.10;74.81
6395;BME280;3230;42.588;23.358;2023-04-09T10:46:48;91263.66;;;11.29;74.28
6395;BME280;3230;42.588;23.358;2023-04-09T10:49:18;91260.09;;;11.09;74.32
6395;BME280;3230;42.588;23.358;2023-04-09T10:52:00;91248.94;;;10.88;73.91
6395;BME280;3230;42.588;23.358;2023-04-09T10:57:24;91242.28;;;11.11;75.66
6395;BME280;3230;42.588;23.358;2023-04-09T10:59:54;91245.06;;;11.30;73.09
6395;BME280;3230;42.588;23.358;2023-04-09T11:07:40;91222.06;;;10.67;75.90
6395;BME280;3230;42.588;23.358;2023-04-09T11:10:08;91231.63;;;10.11;78.93
6395;BME280;3230;42.588;23.358;2023-04-09T11:12:33;91226.38;;;10.11;81.44
6395;BME280;3230;42.588;23.358;2023-04-09T11:14:59;91216.94;;;10.26;81.40
6395;BME280;3230;42.588;23.358;2023-04-09T11:17:24;91226.00;;;10.59;76.32
6395;BME280;3230;42.588;23.358;2023-04-09T11:19:50;91224.19;;;10.54;78.85
6395;BME280;3230;42.588;23.358;2023-04-09T11:22:15;91220.50;;;10.55;78.61
6395;BME280;3230;42.588;23.358;2023-04-09T11:24:42;91222.91;;;10.47;79.91
6395;BME280;3230;42.588;23.358;2023-04-09T11:27:07;91225.50;;;10.57;79.72
6395;BME280;3230;42.588;23.358;2023-04-09T11:29:36;91228.44;;;10.40;82.34
6395;BME280;3230;42.588;23.358;2023-04-09T11:32:02;91219.59;;;10.05;79.41
6395;BME280;3230;42.588;23.358;2023-04-09T11:34:29;91218.50;;;10.16;82.54
6395;BME280;3230;42.588;23.358;2023-04-09T11:36:55;91222.13;;;10.36;79.38
6395;BME280;3230;42.588;23.358;2023-04-09T11:39:21;91219.53;;;10.31;78.22
6395;BME280;3230;42.588;23.358;2023-04-09T11:41:46;91211.97;;;10.03;85.97
6395;BME280;3230;42.588;23.358;2023-04-09T11:44:12;91204.16;;;9.93;86.50
6395;BME280;3230;42.588;23.358;2023-04-09T11:46:38;91208.75;;;10.48;86.21
6395;BME280;3230;42.588;23.358;2023-04-09T11:49:03;91206.63;;;10.55;85.30
6395;BME280;3230;42.588;23.358;2023-04-09T11:51:29;91213.22;;;10.27;85.36
6395;BME280;3230;42.588;23.358;2023-04-09T11:54:01;91204.19;;;10.74;85.80
6395;BME280;3230;42.588;23.358;2023-04-09T11:56:29;91208.56;;;10.89;82.58
6395;BME280;3230;42.588;23.358;2023-04-09T11:58:55;91204.34;;;10.38;83.97
6395;BME280;3230;42.588;23.358;2023-04-09T12:01:21;91203.72;;;10.62;80.86
6395;BME280;3230;42.588;23.358;2023-04-09T12:03:54;91202.38;;;10.64;81.33
6395;BME280;3230;42.588;23.358;2023-04-09T12:06:20;91210.38;;;10.94;80.98
6395;BME280;3230;42.588;23.358;2023-04-09T12:08:56;91197.22;;;10.44;81.84
6395;BME280;3230;42.588;23.358;2023-04-09T12:11:32;91196.53;;;10.02;83.56
6395;BME280;3230;42.588;23.358;2023-04-09T12:14:01;91196.69;;;10.52;83.11
6395;BME280;3230;42.588;23.358;2023-04-09T12:16:30;91196.88;;;10.71;83.32
6395;BME280;3230;42.588;23.358;2023-04-09T12:19:02;91197.16;;;10.64;83.81
6395;BME280;3230;42.588;23.358;2023-04-09T12:21:47;91208.28;;;10.91;82.47
6395;BME280;3230;42.588;23.358;2023-04-09T12:24:14;91198.50;;;11.07;80.37
6395;BME280;3230;42.588;23.358;2023-04-09T12:26:41;91196.56;;;11.23;77.86
6395;BME280;3230;42.588;23.358;2023-04-09T12:29:06;91193.81;;;11.03;78.49
6395;BME280;3230;42.588;23.358;2023-04-09T12:31:32;91197.03;;;11.30;76.33
6395;BME280;3230;42.588;23.358;2023-04-09T12:33:57;91202.03;;;10.81;75.50
6395;BME280;3230;42.588;23.358;2023-04-09T12:36:22;91191.13;;;10.64;78.25
6395;BME280;3230;42.588;23.358;2023-04-09T12:38:48;91193.34;;;10.96;77.47
6395;BME280;3230;42.588;23.358;2023-04-09T12:41:15;91198.03;;;10.99;78.50
6395;BME280;3230;42.588;23.358;2023-04-09T12:43:41;91192.34;;;10.82;78.53
6395;BME280;3230;42.588;23.358;2023-04-09T12:46:09;91186.69;;;10.59;80.66
6395;BME280;3230;42.588;23.358;2023-04-09T12:48:35;91193.88;;;10.38;81.71
6395;BME280;3230;42.588;23.358;2023-04-09T12:51:00;91186.91;;;10.68;78.73
6395;BME280;3230;42.588;23.358;2023-04-09T12:53:26;91179.13;;;10.52;79.85
6395;BME280;3230;42.588;23.358;2023-04-09T12:55:52;91188.97;;;10.76;77.51
6395;BME280;3230;42.588;23.358;2023-04-09T12:58:17;91178.09;;;10.48;81.28
6395;BME280;3230;42.588;23.358;2023-04-09T13:00:43;91181.28;;;10.40;81.46
6395;BME280;3230;42.588;23.358;2023-04-09T13:03:08;91169.19;;;10.49;81.42
6395;BME280;3230;42.588;23.358;2023-04-09T13:05:33;91171.78;;;10.60;81.58
6395;BME280;3230;42.588;23.358;2023-04-09T13:08:02;91177.34;;;10.93;78.86
6395;BME280;3230;42.588;23.358;2023-04-09T13:10:28;91172.88;;;10.93;79.23
6395;BME280;3230;42.588;23.358;2023-04-09T13:12:55;91159.59;;;11.24;78.78
6395;BME280;3230;42.588;23.358;2023-04-09T13:15:20;91169.59;;;11.51;77.22
6395;BME280;3230;42.588;23.358;2023-04-09T13:17:46;91175.91;;;11.16;77.01
6395;BME280;3230;42.588;23.358;2023-04-09T13:20:12;91174.91;;;11.07;74.27
6395;BME280;3230;42.588;23.358;2023-04-09T13:22:37;91167.50;;;11.14;76.42
6395;BME280;3230;42.588;23.358;2023-04-09T13:25:03;91173.19;;;11.31;70.85
6395;BME280;3230;42.588;23.358;2023-04-09T13:27:28;91170.06;;;10.84;71.85
6395;BME280;3230;42.588;23.358;2023-04-09T13:29:54;91171.84;;;10.44;71.48
6395;BME280;3230;42.588;23.358;2023-04-09T13:32:20;91170.84;;;10.14;72.84
6395;BME280;3230;42.588;23.358;2023-04-09T13:34:47;91165.13;;;10.02;74.92
6395;BME280;3230;42.588;23.358;2023-04-09T13:37:13;91165.94;;;9.97;75.21
6395;BME280;3230;42.588;23.358;2023-04-09T13:39:38;91172.47;;;10.00;73.58